Flight Track Log - Related Links

Times and Time Zones

All times are in EST time to prevent confusion due to time zone crossing. See the DAL314 flight status page for this flight to view local times or setup timezone preferences in your user account.

Time Position Orientation Groundspeed Altitude Reporting Facility
EST Latitude Longitude Course Direction KTS MPH feet Rate Location/Type
Mon 06:25:00 PM 28.3070 -82.7001 North  Level Estimated
Mon 06:25:21 PM 27.9661 -82.6575 328° Northwest 304 350 10,100  Level Jacksonville Center
Mon 06:26:00 PM 28.4174 -82.7560 336° Northwest  Level Estimated
Mon 06:26:21 PM 28.0581 -82.6856 345° North 327 376 11,900  Level Jacksonville Center
Mon 06:27:00 PM 28.5279 -82.8120 329° Northwest  Level Estimated
Mon 06:27:21 PM 28.1644 -82.7161 346° North 362 417 14,400  Level Jacksonville Center
Mon 06:28:00 PM 28.6392 -82.8720 335° Northwest  Level FlightAware Approximate
Mon 06:28:21 PM 28.2792 -82.7489 346° North 398 458 17,200  Level Jacksonville Center
Mon 06:29:00 PM 28.7516 -82.9293 330° Northwest  Level Estimated
Mon 06:29:21 PM 28.3919 -82.7817 346° North 413 475 20,400  Level Jacksonville Center
Mon 06:30:00 PM 28.8640 -82.9866 328° Northwest  Level Estimated
Mon 06:30:21 PM 28.5233 -82.8053 351° North 419 482 21,900  Level Jacksonville Center
Mon 06:31:21 PM 28.6319 -82.8525 339° North 424 488 24,300 2,050 Climbing Jacksonville Center
Mon 06:32:21 PM 28.7239 -82.9139 330° Northwest 418 481 26,000 1,900 Climbing Jacksonville Center
Mon 06:33:21 PM 28.8261 -82.9872 328° Northwest 418 481 28,100 1,800 Climbing Jacksonville Center
Mon 06:34:21 PM 28.9303 -83.0586 329° Northwest 429 494 29,600 1,450 Climbing Jacksonville Center
Mon 06:35:21 PM 29.0367 -83.1347 328° Northwest 439 505 31,000 1,450 Climbing Jacksonville Center
Mon 06:36:21 PM 29.1450 -83.2089 329° Northwest 445 512 32,500 1,500 Climbing Jacksonville Center
Mon 06:37:21 PM 29.2472 -83.2806 329° Northwest 444 511 34,000 750 Climbing Jacksonville Center
Mon 06:38:21 PM 29.3556 -83.3572 328° Northwest 444 511 34,000 600 Level Jacksonville Center
Mon 06:39:21 PM 29.4636 -83.4317 329° Northwest 449 517 35,200 1,000 Climbing Jacksonville Center
Mon 06:40:21 PM 29.5719 -83.5039 330° Northwest 454 522 36,000 400 Climbing Jacksonville Center
Mon 06:41:21 PM 29.6864 -83.5692 334° Northwest 454 522 36,000  Level Jacksonville Center
Mon 06:42:21 PM 29.7989 -83.6344 333° Northwest 454 522 36,000  Level Jacksonville Center
Mon 06:43:21 PM 29.9153 -83.6978 335° Northwest 454 522 36,000  Level Jacksonville Center
Mon 06:44:21 PM 30.0275 -83.7636 333° Northwest 454 522 36,000  Level Jacksonville Center
Mon 06:45:21 PM 30.1400 -83.8294 333° Northwest 454 522 36,000  Level Jacksonville Center
Mon 06:46:21 PM 30.2542 -83.8953 334° Northwest 449 517 36,000  Level Jacksonville Center
Mon 06:47:21 PM 30.3686 -83.9592 334° Northwest 449 517 36,000  Level Jacksonville Center
Mon 06:48:21 PM 30.4806 -84.0278 332° Northwest 449 517 36,000  Level Jacksonville Center
Mon 06:49:21 PM 30.6053 -84.1017 333° Northwest 449 517 36,000  Level Jacksonville Center
Mon 06:50:21 PM 30.7217 -84.1686 334° Northwest 449 517 36,000  Level Jacksonville Center
Mon 06:51:21 PM 30.8419 -84.2403 333° Northwest 460 529 36,000  Level Jacksonville Center
Mon 06:52:21 PM 30.9561 -84.3072 333° Northwest 460 529 36,000  Level Jacksonville Center
Mon 06:53:21 PM 31.0722 -84.3744 334° Northwest 465 535 36,000  Level Jacksonville Center
Mon 06:54:21 PM 31.1861 -84.4444 332° Northwest 465 535 36,000  Level Jacksonville Center
Mon 06:55:21 PM 31.2897 -84.5069 333° Northwest 470 541 36,000  Level Jacksonville Center
Mon 06:57:39 PM 31.5717 -84.6725 333° Northwest 469 540 36,000 242 Level Atlanta Center
Mon 06:58:39 PM 31.6861 -84.7442 332° Northwest 469 540 36,800 1,000 Climbing Atlanta Center
Mon 06:59:39 PM 31.7986 -84.8086 334° Northwest 463 533 38,000 600 Climbing Atlanta Center
Mon 07:00:39 PM 31.9044 -84.8756 332° Northwest 447 514 38,000  Level Atlanta Center
Mon 07:01:39 PM 32.0147 -84.9403 334° Northwest 441 507 38,000  Level Atlanta Center
Mon 07:02:39 PM 32.1228 -85.0050 333° Northwest 436 502 38,000  Level Atlanta Center
Mon 07:03:39 PM 32.2306 -85.0750 331° Northwest 436 502 38,000  Level Atlanta Center
Mon 07:04:39 PM 32.3283 -85.1253 337° Northwest 431 496 38,000  Level Atlanta Center
Mon 07:05:39 PM 32.4508 -85.2031 332° Northwest 438 504 38,000  Level Atlanta Center
Mon 07:06:39 PM 32.5628 -85.2711 333° Northwest 443 510 38,000  Level Atlanta Center
Mon 07:07:39 PM 32.6708 -85.3367 333° Northwest 443 510 38,000  Level Atlanta Center
Mon 07:08:39 PM 32.7786 -85.4025 333° Northwest 437 503 38,000  Level Atlanta Center
Mon 07:09:39 PM 32.8883 -85.4711 332° Northwest 432 497 38,000  Level Atlanta Center
Mon 07:10:39 PM 32.9983 -85.5347 334° Northwest 432 497 38,000  Level Atlanta Center
Mon 07:11:39 PM 33.1081 -85.6086 331° Northwest 432 497 38,000  Level Atlanta Center
Mon 07:12:39 PM 33.2178 -85.6753 333° Northwest 432 497 38,000  Level Atlanta Center
Mon 07:13:39 PM 33.3314 -85.7519 331° Northwest 445 512 38,000  Level Atlanta Center
Mon 07:14:39 PM 33.4392 -85.8136 334° Northwest 450 518 38,000  Level Atlanta Center
Mon 07:15:39 PM 33.5531 -85.8833 333° Northwest 451 519 38,000  Level Atlanta Center
Mon 07:16:39 PM 33.6500 -85.9478 331° Northwest 446 513 38,000  Level Atlanta Center
Mon 07:17:39 PM 33.7639 -86.0178 333° Northwest 446 513 38,000  Level Atlanta Center
Mon 07:18:39 PM 33.8753 -86.0881 332° Northwest 446 513 38,000  Level Atlanta Center
Mon 07:19:39 PM 33.9847 -86.1608 331° Northwest 446 513 38,000  Level Atlanta Center
Mon 07:20:39 PM 34.1003 -86.2314 333° Northwest 451 519 38,000  Level Atlanta Center
Mon 07:21:39 PM 34.2158 -86.3072 332° Northwest 457 526 38,000  Level Atlanta Center
Mon 07:22:39 PM 34.3294 -86.3781 333° Northwest 457 526 38,000  Level Atlanta Center
Mon 07:23:39 PM 34.4428 -86.4517 332° Northwest 457 526 38,000  Level Atlanta Center
Mon 07:24:39 PM 34.5561 -86.5256 332° Northwest 457 526 38,000  Level Atlanta Center
Mon 07:25:30 PM 34.6622 -86.5964 331° Northwest 465 535 38,000  Level Memphis Center
Mon 07:26:32 PM 34.7792 -86.6728 332° Northwest 476 548 38,000  Level Memphis Center
Mon 07:27:34 PM 34.8953 -86.7481 332° Northwest 477 549 38,000  Level Memphis Center
Mon 07:28:36 PM 35.0125 -86.8247 332° Northwest 479 551 38,000  Level Memphis Center
Mon 07:29:37 PM 35.1275 -86.9017 331° Northwest 476 548 38,000  Level Memphis Center
Mon 07:30:39 PM 35.2617 -86.9892 332° Northwest 463 533 38,000  Level Memphis Center
Mon 07:31:41 PM 35.3733 -87.0617 332° Northwest 459 528 38,000  Level Memphis Center
Mon 07:32:43 PM 35.4864 -87.1389 331° Northwest 448 516 38,000  Level Memphis Center
Mon 07:33:45 PM 35.5967 -87.2114 332° Northwest 444 511 38,000  Level Memphis Center
Mon 07:34:46 PM 35.7083 -87.2864 331° Northwest 449 517 38,000  Level Memphis Center
Mon 07:35:48 PM 35.8206 -87.3617 331° Northwest 451 519 38,000  Level Memphis Center
Mon 07:36:50 PM 35.9328 -87.4358 332° Northwest 451 519 38,000  Level Memphis Center
Mon 07:37:52 PM 36.0456 -87.5114 332° Northwest 453 521 38,000  Level Memphis Center
Mon 07:38:53 PM 36.1592 -87.5883 331° Northwest 456 525 38,000  Level Memphis Center
Mon 07:39:55 PM 36.2736 -87.6658 331° Northwest 461 531 38,000  Level Memphis Center
Mon 07:40:57 PM 36.3861 -87.7422 331° Northwest 457 526 38,000  Level Memphis Center
Mon 07:41:59 PM 36.4992 -87.8203 331° Northwest 458 527 38,000  Level Memphis Center
Mon 07:43:00 PM 36.6325 -87.9111 331° Northwest 460 529 38,000  Level Memphis Center
Mon 07:44:02 PM 36.7458 -87.9892 331° Northwest 460 529 38,000  Level Memphis Center
Mon 07:45:04 PM 36.8586 -88.0675 331° Northwest 460 529 38,000  Level Memphis Center
Mon 07:46:06 PM 36.9739 -88.1469 331° Northwest 459 528 38,000  Level Memphis Center
Mon 07:47:07 PM 37.0869 -88.2261 331° Northwest 464 534 38,000  Level Memphis Center
Mon 07:48:09 PM 37.1986 -88.3033 331° Northwest 462 532 38,000  Level Memphis Center
Mon 07:49:11 PM 37.3097 -88.3817 331° Northwest 459 528 38,000  Level Memphis Center
Mon 07:50:13 PM 37.4211 -88.4603 331° Northwest 460 529 38,000  Level Memphis Center
Mon 07:51:14 PM 37.5336 -88.5394 331° Northwest 463 533 38,000  Level Memphis Center
Mon 07:52:16 PM 37.6689 -88.6347 331° Northwest 465 535 38,000  Level Memphis Center
Mon 07:53:18 PM 37.7803 -88.7131 331° Northwest 461 531 38,000  Level Memphis Center
Mon 07:54:20 PM 37.8908 -88.7933 330° Northwest 460 529 38,000  Level Memphis Center
Mon 07:55:37 PM 38.0281 -88.8906 331° Northwest 459 528 38,000  Level Kansas City Center
Mon 07:56:40 PM 38.1397 -88.9708 331° Northwest 462 532 38,000  Level Kansas City Center
Mon 07:57:41 PM 38.2511 -89.0528 330° Northwest 463 533 38,000  Level Kansas City Center
Mon 07:58:42 PM 38.3822 -89.1481 330° Northwest 466 536 38,000  Level Kansas City Center
Mon 07:59:45 PM 38.5039 -89.2350 331° Northwest 467 537 38,000  Level Kansas City Center
Mon 08:00:46 PM 38.6153 -89.3169 330° Northwest 464 534 38,000  Level Kansas City Center
Mon 08:01:50 PM 38.7197 -89.3922 331° Northwest 457 526 38,000  Level Kansas City Center
Mon 08:02:50 PM 38.8272 -89.4722 330° Northwest 450 518 38,000  Level Kansas City Center
Mon 08:03:51 PM 38.9361 -89.5525 330° Northwest 453 521 38,000  Level Kansas City Center
Mon 08:04:54 PM 39.0672 -89.6481 331° Northwest 455 524 38,000  Level Kansas City Center
Mon 08:05:55 PM 39.1753 -89.7281 330° Northwest 453 521 38,000  Level Kansas City Center
Mon 08:06:57 PM 39.2847 -89.8097 330° Northwest 456 525 38,000  Level Kansas City Center
Mon 08:08:00 PM 39.3922 -89.8906 330° Northwest 452 520 38,000  Level Kansas City Center
Mon 08:09:02 PM 39.5011 -89.9711 330° Northwest 453 521 38,000  Level Kansas City Center
Mon 08:10:02 PM 39.6106 -90.0544 330° Northwest 456 525 38,000  Level Kansas City Center
Mon 08:11:05 PM 39.7319 -90.1461 330° Northwest 452 520 38,000  Level Kansas City Center
Mon 08:12:06 PM 39.8419 -90.2294 330° Northwest 454 522 38,000  Level Kansas City Center
Mon 08:13:10 PM 39.9533 -90.3139 330° Northwest 458 527 38,000  Level Kansas City Center
Mon 08:14:10 PM 40.0631 -90.3994 329° Northwest 459 528 38,000  Level Kansas City Center
Mon 08:15:12 PM 40.1942 -90.4986 330° Northwest 454 522 38,000  Level Kansas City Center
Mon 08:16:15 PM 40.3017 -90.5833 329° Northwest 450 518 38,000  Level Kansas City Center
Mon 08:17:07 PM 40.3875 -90.6508 329° Northwest 450 518 38,000  Level Chicago Center
Mon 08:18:09 PM 40.4964 -90.7347 330° Northwest 451 519 38,000  Level Chicago Center
Mon 08:19:11 PM 40.6053 -90.8186 330° Northwest 451 519 38,000  Level Chicago Center
Mon 08:20:13 PM 40.7342 -90.9203 329° Northwest 448 516 38,000  Level Chicago Center
Mon 08:21:14 PM 40.8417 -91.0058 329° Northwest 448 516 38,000  Level Chicago Center
Mon 08:22:16 PM 40.9458 -91.0883 329° Northwest 439 505 38,000  Level Chicago Center
Mon 08:23:18 PM 41.0508 -91.1714 329° Northwest 437 503 38,000  Level Chicago Center
Mon 08:24:20 PM 41.1569 -91.2550 329° Northwest 442 509 38,000  Level Chicago Center
Mon 08:25:22 PM 41.2619 -91.3406 329° Northwest 441 507 38,000  Level Chicago Center
Mon 08:26:24 PM 41.3678 -91.4233 330° Northwest 442 509 38,000  Level Chicago Center
Mon 08:27:26 PM 41.4947 -91.5258 329° Northwest 444 511 38,000  Level Chicago Center
Mon 08:28:28 PM 41.6008 -91.6097 329° Northwest 446 513 38,000  Level Chicago Center
Mon 08:29:30 PM 41.7061 -91.6964 328° Northwest 445 512 38,000 -48 Level Chicago Center
Mon 08:30:32 PM 41.8092 -91.7800 329° Northwest 440 506 37,900 -629 Descending Chicago Center
Mon 08:31:34 PM 41.9119 -91.8628 329° Northwest 434 499 36,700 -1,016 Descending Chicago Center
Mon 08:32:36 PM 42.0139 -91.9472 328° Northwest 432 497 35,800 -919 Descending Chicago Center
Mon 08:33:38 PM 42.1361 -92.0481 329° Northwest 428 493 34,800 -871 Descending Chicago Center
Mon 08:34:40 PM 42.2386 -92.1317 329° Northwest 430 495 34,000 -387 Descending Chicago Center
Mon 08:35:42 PM 42.3436 -92.2203 328° Northwest 441 507 34,000 -488 Level Chicago Center
Mon 08:36:43 PM 42.4469 -92.3064 328° Northwest 437 503 33,000 -585 Descending Chicago Center
Mon 08:37:45 PM 42.5517 -92.3950 328° Northwest 442 509 32,800 -435 Descending Chicago Center
Mon 08:38:47 PM 42.6514 -92.4839 327° Northwest 433 498 32,100 -387 Descending Chicago Center
Mon 08:39:49 PM 42.7656 -92.5925 325° Northwest 420 483 32,000 -50 Descending Chicago Center
Mon 08:40:46 PM 42.8439 -92.6631 327° Northwest 420 483 32,000  Level Minneapolis Center
Mon 08:41:47 PM 42.9447 -92.7439 330° Northwest 420 483 32,000  Level Minneapolis Center
Mon 08:42:49 PM 43.0781 -92.8064 341° North 422 486 32,000 -48 Level Minneapolis Center
Mon 08:43:51 PM 43.1864 -92.8603 340° North 418 481 31,900 -532 Descending Minneapolis Center
Mon 08:44:53 PM 43.2953 -92.9144 340° North 417 480 30,900 -1,113 Descending Minneapolis Center
Mon 08:45:55 PM 43.4039 -92.9672 341° North 416 479 29,600 -2,274 Descending Minneapolis Center
Mon 08:46:57 PM 43.5097 -93.0214 340° North 411 473 26,200 -2,419 Descending Minneapolis Center
Mon 08:47:59 PM 43.6144 -93.0636 344° North 398 458 24,600 -2,661 Descending Minneapolis Center
Mon 08:49:01 PM 43.7300 -93.0917 350° North 361 415 20,700 -3,242 Descending Minneapolis Center
Mon 08:50:03 PM 43.8194 -93.1139 350° North 350 403 17,900 -2,613 Descending Minneapolis Center
Mon 08:51:05 PM 43.9139 -93.1389 349° North 346 398 15,300 -2,419 Descending Minneapolis Center
Mon 08:52:07 PM 44.0106 -93.1636 350° North 352 405 12,900 -2,516 Descending Minneapolis Center
Mon 08:53:09 PM 44.1217 -93.1925 349° North 338 389 10,100 -1,403 Descending Minneapolis Center
Mon 08:54:11 PM 44.1969 -93.2114 350° North 272 313 10,000 -48 Descending Minneapolis Center
Mon 08:55:13 PM 44.2711 -93.2197 355° North 268 308 10,000 -581 Level Minneapolis Center
Mon 08:56:15 PM 44.3464 -93.2103 North 271 312 8,800 -1,258 Descending Minneapolis Center
Mon 08:57:17 PM 44.4197 -93.2058 North 265 305 7,400 -871 Descending Minneapolis Center
Mon 08:58:19 PM 44.4906 -93.2042 North 256 295 7,000 -629 Descending Minneapolis Center
Mon 08:59:21 PM 44.5581 -93.2014 North 205 236 6,100 -919 Descending Minneapolis Center
Mon 09:00:23 PM 44.6083 -93.1992 North 185 213 5,100 -1,016 Descending Minneapolis Center
Mon 09:01:25 PM 44.6575 -93.1972 North 178 205 4,000 -532 Descending Minneapolis Center
Mon 09:02:27 PM 44.7072 -93.1947 North 180 207 4,000 -488 Level Minneapolis Center
Mon 09:03:28 PM 44.7619 -93.2100 349° North 177 204 3,000 -878 Descending Minneapolis Center
Mon 09:04:30 PM 44.8047 -93.2208 350° North 162 186 2,200 -774 Descending Minneapolis Center
Mon 09:05:32 PM 44.8392 -93.2300 349° North 130 150 1,400 -774 Descending Minneapolis Center

Login

Don't have an account? Register now (free) for customized features, flight alerts, and more!